sensor_id;sensor_type;location;lat;lon;timestamp;temperature;humidity
9305;DHT22;4690;52.422;13.486;2023-10-19T00:10:54;6.90;99.90
9305;DHT22;4690;52.422;13.486;2023-10-19T00:13:39;6.90;99.90
9305;DHT22;4690;52.422;13.486;2023-10-19T00:16:06;6.90;99.90
9305;DHT22;4690;52.422;13.486;2023-10-19T00:18:43;6.90;99.90
9305;DHT22;4690;52.422;13.486;2023-10-19T00:21:10;6.80;99.90
9305;DHT22;4690;52.422;13.486;2023-10-19T00:23:52;6.80;99.90
9305;DHT22;4690;52.422;13.486;2023-10-19T00:26:26;6.80;99.90
9305;DHT22;4690;52.422;13.486;2023-10-19T00:28:55;6.80;99.90
9305;DHT22;4690;52.422;13.486;2023-10-19T00:31:21;6.90;99.90
9305;DHT22;4690;52.422;13.486;2023-10-19T00:33:48;6.90;99.90
9305;DHT22;4690;52.422;13.486;2023-10-19T00:36:17;6.80;99.90
9305;DHT22;4690;52.422;13.486;2023-10-19T00:38:46;6.80;99.90
9305;DHT22;4690;52.422;13.486;2023-10-19T00:41:21;6.80;99.90
9305;DHT22;4690;52.422;13.486;2023-10-19T00:43:55;6.80;99.90
9305;DHT22;4690;52.422;13.486;2023-10-19T00:46:38;6.80;99.90
9305;DHT22;4690;52.422;13.486;2023-10-19T00:49:07;6.80;99.90
9305;DHT22;4690;52.422;13.486;2023-10-19T00:51:45;6.80;99.90
9305;DHT22;4690;52.422;13.486;2023-10-19T00:54:39;6.80;99.90
9305;DHT22;4690;52.422;13.486;2023-10-19T00:57:20;6.80;99.90
9305;DHT22;4690;52.422;13.486;2023-10-19T00:59:46;6.90;99.90
9305;DHT22;4690;52.422;13.486;2023-10-19T01:02:19;6.90;99.90
9305;DHT22;4690;52.422;13.486;2023-10-19T01:04:51;6.90;99.90
9305;DHT22;4690;52.422;13.486;2023-10-19T01:07:23;6.80;99.90
9305;DHT22;4690;52.422;13.486;2023-10-19T01:09:56;6.80;99.90
9305;DHT22;4690;52.422;13.486;2023-10-19T01:12:29;6.80;99.90
9305;DHT22;4690;52.422;13.486;2023-10-19T01:17:27;6.80;99.90
9305;DHT22;4690;52.422;13.486;2023-10-19T01:19:56;6.80;99.90
9305;DHT22;4690;52.422;13.486;2023-10-19T01:22:23;6.80;99.90
9305;DHT22;4690;52.422;13.486;2023-10-19T01:24:52;6.80;99.90
9305;DHT22;4690;52.422;13.486;2023-10-19T01:27:19;6.80;99.90
9305;DHT22;4690;52.422;13.486;2023-10-19T01:29:45;6.80;99.90
9305;DHT22;4690;52.422;13.486;2023-10-19T01:32:12;6.80;99.90
9305;DHT22;4690;52.422;13.486;2023-10-19T01:34:40;6.70;99.90
9305;DHT22;4690;52.422;13.486;2023-10-19T01:37:06;6.70;99.90
9305;DHT22;4690;52.422;13.486;2023-10-19T01:39:35;6.70;99.90
9305;DHT22;4690;52.422;13.486;2023-10-19T01:42:02;6.80;99.90
9305;DHT22;4690;52.422;13.486;2023-10-19T01:44:33;6.80;99.90
9305;DHT22;4690;52.422;13.486;2023-10-19T01:47:01;6.80;99.90
9305;DHT22;4690;52.422;13.486;2023-10-19T01:49:27;6.80;99.90
9305;DHT22;4690;52.422;13.486;2023-10-19T01:51:54;6.80;99.90
9305;DHT22;4690;52.422;13.486;2023-10-19T01:54:21;6.70;99.90
9305;DHT22;4690;52.422;13.486;2023-10-19T01:56:52;6.70;99.90
9305;DHT22;4690;52.422;13.486;2023-10-19T01:59:25;6.70;99.90
9305;DHT22;4690;52.422;13.486;2023-10-19T02:01:56;6.70;99.90
9305;DHT22;4690;52.422;13.486;2023-10-19T02:04:23;6.80;99.90
9305;DHT22;4690;52.422;13.486;2023-10-19T02:06:49;6.70;99.90
9305;DHT22;4690;52.422;13.486;2023-10-19T02:09:18;6.70;99.90
9305;DHT22;4690;52.422;13.486;2023-10-19T02:11:51;6.70;99.90
9305;DHT22;4690;52.422;13.486;2023-10-19T02:14:22;6.70;99.90
9305;DHT22;4690;52.422;13.486;2023-10-19T02:16:52;6.70;99.90
9305;DHT22;4690;52.422;13.486;2023-10-19T02:19:21;6.70;99.90
9305;DHT22;4690;52.422;13.486;2023-10-19T02:21:59;6.70;99.90
9305;DHT22;4690;52.422;13.486;2023-10-19T02:24:29;6.70;99.90
9305;DHT22;4690;52.422;13.486;2023-10-19T02:26:57;6.70;99.90
9305;DHT22;4690;52.422;13.486;2023-10-19T02:29:23;6.70;99.90
9305;DHT22;4690;52.422;13.486;2023-10-19T02:31:50;6.70;99.90
9305;DHT22;4690;52.422;13.486;2023-10-19T02:34:16;6.70;99.90
9305;DHT22;4690;52.422;13.486;2023-10-19T02:36:43;6.70;99.90
9305;DHT22;4690;52.422;13.486;2023-10-19T02:39:11;6.70;99.90
9305;DHT22;4690;52.422;13.486;2023-10-19T02:41:41;6.70;99.90
9305;DHT22;4690;52.422;13.486;2023-10-19T02:44:16;6.70;99.90
9305;DHT22;4690;52.422;13.486;2023-10-19T02:46:54;6.70;99.90
9305;DHT22;4690;52.422;13.486;2023-10-19T02:49:25;6.70;99.90
9305;DHT22;4690;52.422;13.486;2023-10-19T02:51:52;6.70;99.90
9305;DHT22;4690;52.422;13.486;2023-10-19T02:54:21;6.70;99.90
9305;DHT22;4690;52.422;13.486;2023-10-19T02:56:49;6.70;99.90
9305;DHT22;4690;52.422;13.486;2023-10-19T02:59:22;6.70;99.90
9305;DHT22;4690;52.422;13.486;2023-10-19T03:01:52;6.70;99.90
9305;DHT22;4690;52.422;13.486;2023-10-19T03:04:26;6.70;99.90
9305;DHT22;4690;52.422;13.486;2023-10-19T03:06:55;6.80;99.90
9305;DHT22;4690;52.422;13.486;2023-10-19T03:09:22;6.80;99.90
9305;DHT22;4690;52.422;13.486;2023-10-19T03:11:54;6.70;99.90
9305;DHT22;4690;52.422;13.486;2023-10-19T03:14:26;6.70;99.90
9305;DHT22;4690;52.422;13.486;2023-10-19T03:16:53;6.70;99.90
9305;DHT22;4690;52.422;13.486;2023-10-19T03:19:22;6.70;99.90
9305;DHT22;4690;52.422;13.486;2023-10-19T03:21:50;6.70;99.90
9305;DHT22;4690;52.422;13.486;2023-10-19T03:24:17;6.70;99.90
9305;DHT22;4690;52.422;13.486;2023-10-19T03:27:07;6.70;99.90
9305;DHT22;4690;52.422;13.486;2023-10-19T03:29:43;6.70;99.90
9305;DHT22;4690;52.422;13.486;2023-10-19T03:32:28;6.70;99.90
9305;DHT22;4690;52.422;13.486;2023-10-19T03:34:58;6.70;99.90
9305;DHT22;4690;52.422;13.486;2023-10-19T03:37:27;6.70;99.90
9305;DHT22;4690;52.422;13.486;2023-10-19T03:39:56;6.70;99.90
9305;DHT22;4690;52.422;13.486;2023-10-19T03:42:22;6.70;99.90
9305;DHT22;4690;52.422;13.486;2023-10-19T03:44:52;6.70;99.90
9305;DHT22;4690;52.422;13.486;2023-10-19T03:47:20;6.70;99.90
9305;DHT22;4690;52.422;13.486;2023-10-19T03:49:50;6.70;99.90
9305;DHT22;4690;52.422;13.486;2023-10-19T03:52:16;6.80;99.90
9305;DHT22;4690;52.422;13.486;2023-10-19T03:54:42;6.70;99.90
9305;DHT22;4690;52.422;13.486;2023-10-19T03:57:10;6.70;99.90
9305;DHT22;4690;52.422;13.486;2023-10-19T03:59:41;6.70;99.90
9305;DHT22;4690;52.422;13.486;2023-10-19T04:02:08;6.70;99.90
9305;DHT22;4690;52.422;13.486;2023-10-19T04:04:42;6.70;99.90
9305;DHT22;4690;52.422;13.486;2023-10-19T04:07:10;6.70;99.90
9305;DHT22;4690;52.422;13.486;2023-10-19T04:09:39;6.70;99.90
9305;DHT22;4690;52.422;13.486;2023-10-19T04:12:26;6.70;99.90
9305;DHT22;4690;52.422;13.486;2023-10-19T04:14:56;6.70;99.90
9305;DHT22;4690;52.422;13.486;2023-10-19T04:17:22;6.70;99.90
9305;DHT22;4690;52.422;13.486;2023-10-19T04:19:49;6.70;99.90
9305;DHT22;4690;52.422;13.486;2023-10-19T04:22:17;6.70;99.90
9305;DHT22;4690;52.422;13.486;2023-10-19T04:24:53;6.80;99.90
9305;DHT22;4690;52.422;13.486;2023-10-19T04:27:19;6.70;99.90
9305;DHT22;4690;52.422;13.486;2023-10-19T04:29:48;6.70;99.90
9305;DHT22;4690;52.422;13.486;2023-10-19T04:32:16;6.70;99.90
9305;DHT22;4690;52.422;13.486;2023-10-19T04:34:51;6.70;99.90
9305;DHT22;4690;52.422;13.486;2023-10-19T04:37:18;6.70;99.90
9305;DHT22;4690;52.422;13.486;2023-10-19T04:39:44;6.70;99.90
9305;DHT22;4690;52.422;13.486;2023-10-19T04:42:11;6.70;99.90
9305;DHT22;4690;52.422;13.486;2023-10-19T04:44:37;6.70;99.90
9305;DHT22;4690;52.422;13.486;2023-10-19T04:47:03;6.70;99.90
9305;DHT22;4690;52.422;13.486;2023-10-19T04:49:29;6.70;99.90
9305;DHT22;4690;52.422;13.486;2023-10-19T04:51:55;6.70;99.90
9305;DHT22;4690;52.422;13.486;2023-10-19T04:54:20;6.70;99.90
9305;DHT22;4690;52.422;13.486;2023-10-19T04:56:46;6.70;99.90
9305;DHT22;4690;52.422;13.486;2023-10-19T04:59:12;6.70;99.90
9305;DHT22;4690;52.422;13.486;2023-10-19T05:01:37;6.70;99.90
9305;DHT22;4690;52.422;13.486;2023-10-19T05:04:05;6.70;99.90
9305;DHT22;4690;52.422;13.486;2023-10-19T05:06:31;6.70;99.90
9305;DHT22;4690;52.422;13.486;2023-10-19T05:08:57;6.70;99.90
9305;DHT22;4690;52.422;13.486;2023-10-19T05:11:23;6.70;99.90
9305;DHT22;4690;52.422;13.486;2023-10-19T05:13:48;6.70;99.90
9305;DHT22;4690;52.422;13.486;2023-10-19T05:16:14;6.70;99.90
9305;DHT22;4690;52.422;13.486;2023-10-19T05:18:40;6.70;99.90
9305;DHT22;4690;52.422;13.486;2023-10-19T05:21:06;6.70;99.90
9305;DHT22;4690;52.422;13.486;2023-10-19T05:23:32;6.60;99.90
9305;DHT22;4690;52.422;13.486;2023-10-19T05:26:03;6.60;99.90
9305;DHT22;4690;52.422;13.486;2023-10-19T05:28:32;6.60;99.90
9305;DHT22;4690;52.422;13.486;2023-10-19T05:30:59;6.70;99.90
9305;DHT22;4690;52.422;13.486;2023-10-19T05:33:25;6.60;99.90
9305;DHT22;4690;52.422;13.486;2023-10-19T05:35:52;6.60;99.90
9305;DHT22;4690;52.422;13.486;2023-10-19T05:38:18;6.60;99.90
9305;DHT22;4690;52.422;13.486;2023-10-19T05:40:48;6.60;99.90
9305;DHT22;4690;52.422;13.486;2023-10-19T05:43:15;6.60;99.90
9305;DHT22;4690;52.422;13.486;2023-10-19T05:45:41;6.60;99.90
9305;DHT22;4690;52.422;13.486;2023-10-19T05:48:07;6.60;99.90
9305;DHT22;4690;52.422;13.486;2023-10-19T05:50:34;6.50;99.90
9305;DHT22;4690;52.422;13.486;2023-10-19T05:53:01;6.60;99.90
9305;DHT22;4690;52.422;13.486;2023-10-19T05:55:29;6.60;99.90
9305;DHT22;4690;52.422;13.486;2023-10-19T05:57:55;6.50;99.90
9305;DHT22;4690;52.422;13.486;2023-10-19T06:00:21;6.60;99.90
9305;DHT22;4690;52.422;13.486;2023-10-19T06:02:51;6.60;99.90
9305;DHT22;4690;52.422;13.486;2023-10-19T06:05:18;6.50;99.90
9305;DHT22;4690;52.422;13.486;2023-10-19T06:07:45;6.50;99.90
9305;DHT22;4690;52.422;13.486;2023-10-19T06:10:14;6.50;99.90
9305;DHT22;4690;52.422;13.486;2023-10-19T06:12:46;6.50;99.90
9305;DHT22;4690;52.422;13.486;2023-10-19T06:15:15;6.40;99.90
9305;DHT22;4690;52.422;13.486;2023-10-19T06:17:43;6.30;99.90
9305;DHT22;4690;52.422;13.486;2023-10-19T06:20:11;6.20;99.90
9305;DHT22;4690;52.422;13.486;2023-10-19T06:22:54;6.10;99.90
9305;DHT22;4690;52.422;13.486;2023-10-19T06:25:29;5.90;99.90
9305;DHT22;4690;52.422;13.486;2023-10-19T06:27:56;5.80;99.90
9305;DHT22;4690;52.422;13.486;2023-10-19T06:30:25;5.70;99.90
9305;DHT22;4690;52.422;13.486;2023-10-19T06:32:54;5.60;99.90
9305;DHT22;4690;52.422;13.486;2023-10-19T06:35:22;5.60;99.90
9305;DHT22;4690;52.422;13.486;2023-10-19T06:37:48;5.60;99.90
9305;DHT22;4690;52.422;13.486;2023-10-19T06:40:16;5.60;99.90
9305;DHT22;4690;52.422;13.486;2023-10-19T06:42:46;5.60;99.90
9305;DHT22;4690;52.422;13.486;2023-10-19T06:45:13;5.50;99.90
9305;DHT22;4690;52.422;13.486;2023-10-19T06:47:48;5.60;99.90
9305;DHT22;4690;52.422;13.486;2023-10-19T06:50:17;5.50;99.90
9305;DHT22;4690;52.422;13.486;2023-10-19T06:52:45;5.50;99.90
9305;DHT22;4690;52.422;13.486;2023-10-19T06:55:13;5.60;99.90
9305;DHT22;4690;52.422;13.486;2023-10-19T06:57:43;5.70;99.90
9305;DHT22;4690;52.422;13.486;2023-10-19T07:00:11;5.60;99.90
9305;DHT22;4690;52.422;13.486;2023-10-19T07:02:44;5.60;99.90
9305;DHT22;4690;52.422;13.486;2023-10-19T07:05:16;5.60;99.90
9305;DHT22;4690;52.422;13.486;2023-10-19T07:07:51;5.70;99.90
9305;DHT22;4690;52.422;13.486;2023-10-19T07:10:19;5.80;99.90
9305;DHT22;4690;52.422;13.486;2023-10-19T07:12:47;5.90;99.90
9305;DHT22;4690;52.422;13.486;2023-10-19T07:15:16;6.00;99.90
9305;DHT22;4690;52.422;13.486;2023-10-19T07:17:48;6.10;99.90
9305;DHT22;4690;52.422;13.486;2023-10-19T07:20:17;6.10;99.90
9305;DHT22;4690;52.422;13.486;2023-10-19T07:22:59;6.20;99.90
9305;DHT22;4690;52.422;13.486;2023-10-19T07:25:36;6.20;99.90
9305;DHT22;4690;52.422;13.486;2023-10-19T07:28:12;6.20;99.90
9305;DHT22;4690;52.422;13.486;2023-10-19T07:30:40;6.20;99.90
9305;DHT22;4690;52.422;13.486;2023-10-19T07:33:07;6.30;99.90
9305;DHT22;4690;52.422;13.486;2023-10-19T07:35:35;6.30;99.90
9305;DHT22;4690;52.422;13.486;2023-10-19T07:38:08;6.40;99.90
9305;DHT22;4690;52.422;13.486;2023-10-19T07:40:34;6.40;99.90
9305;DHT22;4690;52.422;13.486;2023-10-19T07:43:01;6.50;99.90
9305;DHT22;4690;52.422;13.486;2023-10-19T07:45:27;6.40;99.90
9305;DHT22;4690;52.422;13.486;2023-10-19T07:47:53;6.50;99.90
9305;DHT22;4690;52.422;13.486;2023-10-19T07:50:19;6.50;99.90
9305;DHT22;4690;52.422;13.486;2023-10-19T07:52:46;6.50;99.90
9305;DHT22;4690;52.422;13.486;2023-10-19T07:55:15;6.50;99.90
9305;DHT22;4690;52.422;13.486;2023-10-19T07:57:42;6.50;99.90
9305;DHT22;4690;52.422;13.486;2023-10-19T08:00:10;6.50;99.90
9305;DHT22;4690;52.422;13.486;2023-10-19T08:02:39;6.50;99.90
9305;DHT22;4690;52.422;13.486;2023-10-19T08:05:14;6.60;99.90
9305;DHT22;4690;52.422;13.486;2023-10-19T08:07:41;6.60;99.90
9305;DHT22;4690;52.422;13.486;2023-10-19T08:10:11;6.60;99.90
9305;DHT22;4690;52.422;13.486;2023-10-19T08:12:39;6.60;99.90
9305;DHT22;4690;52.422;13.486;2023-10-19T08:15:12;6.60;99.90
9305;DHT22;4690;52.422;13.486;2023-10-19T08:17:48;6.60;99.90
9305;DHT22;4690;52.422;13.486;2023-10-19T08:20:20;6.70;99.90
9305;DHT22;4690;52.422;13.486;2023-10-19T08:22:52;6.70;99.90
9305;DHT22;4690;52.422;13.486;2023-10-19T08:25:22;6.70;99.90
9305;DHT22;4690;52.422;13.486;2023-10-19T08:27:49;6.80;99.90
9305;DHT22;4690;52.422;13.486;2023-10-19T08:30:21;6.80;99.90
9305;DHT22;4690;52.422;13.486;2023-10-19T08:32:47;6.80;99.90
9305;DHT22;4690;52.422;13.486;2023-10-19T08:35:18;6.80;99.90
9305;DHT22;4690;52.422;13.486;2023-10-19T08:37:46;6.90;99.90
9305;DHT22;4690;52.422;13.486;2023-10-19T08:40:13;6.90;99.90
9305;DHT22;4690;52.422;13.486;2023-10-19T08:42:41;7.00;99.90
9305;DHT22;4690;52.422;13.486;2023-10-19T08:45:11;7.00;99.90
9305;DHT22;4690;52.422;13.486;2023-10-19T08:47:54;7.00;99.90
9305;DHT22;4690;52.422;13.486;2023-10-19T08:50:31;7.00;99.90
9305;DHT22;4690;52.422;13.486;2023-10-19T08:53:00;7.10;99.90
9305;DHT22;4690;52.422;13.486;2023-10-19T08:55:28;7.10;99.90
9305;DHT22;4690;52.422;13.486;2023-10-19T08:57:56;7.10;99.90
9305;DHT22;4690;52.422;13.486;2023-10-19T09:00:25;7.10;99.90
9305;DHT22;4690;52.422;13.486;2023-10-19T09:02:55;7.20;99.90
9305;DHT22;4690;52.422;13.486;2023-10-19T09:05:25;7.10;99.90
9305;DHT22;4690;52.422;13.486;2023-10-19T09:07:52;7.20;99.90
9305;DHT22;4690;52.422;13.486;2023-10-19T09:10:24;7.20;99.90
9305;DHT22;4690;52.422;13.486;2023-10-19T09:13:01;7.20;99.90
9305;DHT22;4690;52.422;13.486;2023-10-19T09:15:29;7.20;99.90
9305;DHT22;4690;52.422;13.486;2023-10-19T09:18:19;7.30;99.90
9305;DHT22;4690;52.422;13.486;2023-10-19T09:20:51;7.30;99.90
9305;DHT22;4690;52.422;13.486;2023-10-19T09:23:23;7.30;99.90
9305;DHT22;4690;52.422;13.486;2023-10-19T09:25:51;7.30;99.90
9305;DHT22;4690;52.422;13.486;2023-10-19T09:28:24;7.30;99.90
9305;DHT22;4690;52.422;13.486;2023-10-19T09:30:51;7.30;99.90
9305;DHT22;4690;52.422;13.486;2023-10-19T09:33:18;7.40;99.90
9305;DHT22;4690;52.422;13.486;2023-10-19T09:35:47;7.40;99.90
9305;DHT22;4690;52.422;13.486;2023-10-19T09:38:17;7.50;99.90
9305;DHT22;4690;52.422;13.486;2023-10-19T09:40:54;7.60;99.90
9305;DHT22;4690;52.422;13.486;2023-10-19T09:46:08;7.60;99.90
9305;DHT22;4690;52.422;13.486;2023-10-19T09:48:42;7.50;99.90
9305;DHT22;4690;52.422;13.486;2023-10-19T09:51:13;7.60;99.90
9305;DHT22;4690;52.422;13.486;2023-10-19T09:53:43;7.60;99.90
9305;DHT22;4690;52.422;13.486;2023-10-19T09:56:20;7.60;99.90
9305;DHT22;4690;52.422;13.486;2023-10-19T09:58:54;7.60;99.90
9305;DHT22;4690;52.422;13.486;2023-10-19T10:01:27;7.60;99.90
9305;DHT22;4690;52.422;13.486;2023-10-19T10:03:54;7.60;99.90
9305;DHT22;4690;52.422;13.486;2023-10-19T10:09:21;7.60;99.90
9305;DHT22;4690;52.422;13.486;2023-10-19T10:11:52;7.70;99.90
9305;DHT22;4690;52.422;13.486;2023-10-19T10:14:26;7.70;99.90
9305;DHT22;4690;52.422;13.486;2023-10-19T10:17:01;7.70;99.90
9305;DHT22;4690;52.422;13.486;2023-10-19T10:19:28;7.60;99.90
9305;DHT22;4690;52.422;13.486;2023-10-19T10:22:07;7.70;99.90
9305;DHT22;4690;52.422;13.486;2023-10-19T10:24:42;7.60;99.90
9305;DHT22;4690;52.422;13.486;2023-10-19T10:27:08;7.60;99.90
9305;DHT22;4690;52.422;13.486;2023-10-19T10:29:35;7.60;99.90
9305;DHT22;4690;52.422;13.486;2023-10-19T10:32:02;7.60;99.90
9305;DHT22;4690;52.422;13.486;2023-10-19T10:37:06;7.50;99.90
9305;DHT22;4690;52.422;13.486;2023-10-19T10:39:38;7.50;99.90
9305;DHT22;4690;52.422;13.486;2023-10-19T10:42:07;7.60;99.90
9305;DHT22;4690;52.422;13.486;2023-10-19T10:44:45;7.60;99.90
9305;DHT22;4690;52.422;13.486;2023-10-19T10:47:17;7.60;99.90
9305;DHT22;4690;52.422;13.486;2023-10-19T10:49:50;7.50;99.90
9305;DHT22;4690;52.422;13.486;2023-10-19T10:52:27;7.50;99.90
9305;DHT22;4690;52.422;13.486;2023-10-19T10:54:58;7.50;99.90
9305;DHT22;4690;52.422;13.486;2023-10-19T10:57:32;7.50;99.90
9305;DHT22;4690;52.422;13.486;2023-10-19T11:02:40;7.40;99.90
9305;DHT22;4690;52.422;13.486;2023-10-19T11:05:12;7.30;99.90
9305;DHT22;4690;52.422;13.486;2023-10-19T11:07:40;7.30;99.90
9305;DHT22;4690;52.422;13.486;2023-10-19T11:10:28;7.30;99.90
9305;DHT22;4690;52.422;13.486;2023-10-19T11:13:04;7.20;99.90
9305;DHT22;4690;52.422;13.486;2023-10-19T11:15:35;7.10;99.90
9305;DHT22;4690;52.422;13.486;2023-10-19T11:18:03;7.00;99.90
9305;DHT22;4690;52.422;13.486;2023-10-19T11:20:29;7.00;99.90
9305;DHT22;4690;52.422;13.486;2023-10-19T11:22:57;7.00;99.90
9305;DHT22;4690;52.422;13.486;2023-10-19T11:25:27;7.00;99.90
9305;DHT22;4690;52.422;13.486;2023-10-19T11:27:59;7.10;99.90
9305;DHT22;4690;52.422;13.486;2023-10-19T11:30:27;7.00;99.90
9305;DHT22;4690;52.422;13.486;2023-10-19T11:32:55;6.90;99.90
9305;DHT22;4690;52.422;13.486;2023-10-19T11:35:28;6.90;99.90
9305;DHT22;4690;52.422;13.486;2023-10-19T11:38:00;7.00;99.90
9305;DHT22;4690;52.422;13.486;2023-10-19T11:40:28;7.10;99.90
9305;DHT22;4690;52.422;13.486;2023-10-19T11:42:55;7.00;99.90
9305;DHT22;4690;52.422;13.486;2023-10-19T11:45:25;7.00;99.90
9305;DHT22;4690;52.422;13.486;2023-10-19T11:47:52;7.00;99.90
9305;DHT22;4690;52.422;13.486;2023-10-19T11:50:18;7.10;99.90
9305;DHT22;4690;52.422;13.486;2023-10-19T11:52:46;7.20;99.90
9305;DHT22;4690;52.422;13.486;2023-10-19T11:55:12;7.20;99.90
9305;DHT22;4690;52.422;13.486;2023-10-19T11:57:40;7.20;99.90
9305;DHT22;4690;52.422;13.486;2023-10-19T12:00:09;7.10;99.90
9305;DHT22;4690;52.422;13.486;2023-10-19T12:02:39;7.10;99.90
9305;DHT22;4690;52.422;13.486;2023-10-19T12:05:09;7.10;99.90
9305;DHT22;4690;52.422;13.486;2023-10-19T12:07:38;7.10;99.90
9305;DHT22;4690;52.422;13.486;2023-10-19T12:10:07;7.20;99.90
9305;DHT22;4690;52.422;13.486;2023-10-19T12:12:37;7.20;99.90
9305;DHT22;4690;52.422;13.486;2023-10-19T12:15:04;7.20;99.90
9305;DHT22;4690;52.422;13.486;2023-10-19T12:17:34;7.20;99.90
9305;DHT22;4690;52.422;13.486;2023-10-19T12:20:00;7.20;99.90
9305;DHT22;4690;52.422;13.486;2023-10-19T12:22:26;7.30;99.90
9305;DHT22;4690;52.422;13.486;2023-10-19T12:24:58;7.20;99.90
9305;DHT22;4690;52.422;13.486;2023-10-19T12:27:24;7.20;99.90
9305;DHT22;4690;52.422;13.486;2023-10-19T12:29:51;7.20;99.90
9305;DHT22;4690;52.422;13.486;2023-10-19T12:32:20;7.20;99.90
9305;DHT22;4690;52.422;13.486;2023-10-19T12:34:47;7.30;99.90
9305;DHT22;4690;52.422;13.486;2023-10-19T12:37:19;7.30;99.90
9305;DHT22;4690;52.422;13.486;2023-10-19T12:39:45;7.30;99.90
9305;DHT22;4690;52.422;13.486;2023-10-19T12:42:14;7.20;99.90
9305;DHT22;4690;52.422;13.486;2023-10-19T12:44:41;7.30;99.90
9305;DHT22;4690;52.422;13.486;2023-10-19T12:47:08;7.30;99.90
9305;DHT22;4690;52.422;13.486;2023-10-19T12:49:41;7.30;99.90
9305;DHT22;4690;52.422;13.486;2023-10-19T12:52:08;7.30;99.90
9305;DHT22;4690;52.422;13.486;2023-10-19T12:54:36;7.30;99.90
9305;DHT22;4690;52.422;13.486;2023-10-19T12:57:03;7.40;99.90
9305;DHT22;4690;52.422;13.486;2023-10-19T12:59:36;7.40;99.90
9305;DHT22;4690;52.422;13.486;2023-10-19T13:02:05;7.40;99.90
9305;DHT22;4690;52.422;13.486;2023-10-19T13:04:34;7.40;99.90
9305;DHT22;4690;52.422;13.486;2023-10-19T13:07:00;7.30;99.90
9305;DHT22;4690;52.422;13.486;2023-10-19T13:09:28;7.30;99.90
9305;DHT22;4690;52.422;13.486;2023-10-19T13:11:57;7.40;99.90
9305;DHT22;4690;52.422;13.486;2023-10-19T13:14:24;7.30;99.90
9305;DHT22;4690;52.422;13.486;2023-10-19T13:16:50;7.30;99.90
9305;DHT22;4690;52.422;13.486;2023-10-19T13:19:18;7.30;99.90
9305;DHT22;4690;52.422;13.486;2023-10-19T13:21:54;7.40;99.90
9305;DHT22;4690;52.422;13.486;2023-10-19T13:24:23;7.30;99.90
9305;DHT22;4690;52.422;13.486;2023-10-19T13:26:51;7.40;99.90
9305;DHT22;4690;52.422;13.486;2023-10-19T13:29:17;7.40;99.90
9305;DHT22;4690;52.422;13.486;2023-10-19T13:31:43;7.30;99.90
9305;DHT22;4690;52.422;13.486;2023-10-19T13:34:18;7.40;99.90
9305;DHT22;4690;52.422;13.486;2023-10-19T13:36:43;7.40;99.90
9305;DHT22;4690;52.422;13.486;2023-10-19T13:39:11;7.30;99.90
9305;DHT22;4690;52.422;13.486;2023-10-19T13:41:42;7.40;99.90
9305;DHT22;4690;52.422;13.486;2023-10-19T13:44:08;7.40;99.90
9305;DHT22;4690;52.422;13.486;2023-10-19T13:46:33;7.40;99.90
9305;DHT22;4690;52.422;13.486;2023-10-19T13:48:59;7.50;99.90
9305;DHT22;4690;52.422;13.486;2023-10-19T13:51:28;7.50;99.90
9305;DHT22;4690;52.422;13.486;2023-10-19T13:53:54;7.40;99.90
9305;DHT22;4690;52.422;13.486;2023-10-19T13:56:20;7.40;99.90
9305;DHT22;4690;52.422;13.486;2023-10-19T13:58:45;7.40;99.90
9305;DHT22;4690;52.422;13.486;2023-10-19T14:01:13;7.40;99.90
9305;DHT22;4690;52.422;13.486;2023-10-19T14:03:38;7.30;99.90
9305;DHT22;4690;52.422;13.486;2023-10-19T14:06:04;7.30;99.90
9305;DHT22;4690;52.422;13.486;2023-10-19T14:08:30;7.40;99.90
9305;DHT22;4690;52.422;13.486;2023-10-19T14:11:03;7.40;99.90
9305;DHT22;4690;52.422;13.486;2023-10-19T14:13:29;7.40;99.90
9305;DHT22;4690;52.422;13.486;2023-10-19T14:15:55;7.40;99.90
9305;DHT22;4690;52.422;13.486;2023-10-19T14:18:21;7.40;99.90
9305;DHT22;4690;52.422;13.486;2023-10-19T14:20:47;7.50;99.90
9305;DHT22;4690;52.422;13.486;2023-10-19T14:23:12;7.50;99.90
9305;DHT22;4690;52.422;13.486;2023-10-19T14:25:38;7.40;99.90
9305;DHT22;4690;52.422;13.486;2023-10-19T14:28:05;7.40;99.90
9305;DHT22;4690;52.422;13.486;2023-10-19T14:30:32;7.30;99.90
9305;DHT22;4690;52.422;13.486;2023-10-19T14:32:58;7.40;99.90
9305;DHT22;4690;52.422;13.486;2023-10-19T14:35:24;7.40;99.90
9305;DHT22;4690;52.422;13.486;2023-10-19T14:37:52;7.40;99.90
9305;DHT22;4690;52.422;13.486;2023-10-19T14:40:25;7.30;99.90
9305;DHT22;4690;52.422;13.486;2023-10-19T14:42:52;7.30;99.90
9305;DHT22;4690;52.422;13.486;2023-10-19T14:45:24;7.40;99.90
9305;DHT22;4690;52.422;13.486;2023-10-19T14:47:52;7.40;99.90
9305;DHT22;4690;52.422;13.486;2023-10-19T14:50:22;7.40;99.90
9305;DHT22;4690;52.422;13.486;2023-10-19T14:52:51;7.40;99.90
9305;DHT22;4690;52.422;13.486;2023-10-19T14:55:19;7.40;99.90
9305;DHT22;4690;52.422;13.486;2023-10-19T14:57:46;7.40;99.90
9305;DHT22;4690;52.422;13.486;2023-10-19T15:00:24;7.40;99.90
9305;DHT22;4690;52.422;13.486;2023-10-19T15:03:00;7.40;99.90
9305;DHT22;4690;52.422;13.486;2023-10-19T15:05:30;7.40;99.90
9305;DHT22;4690;52.422;13.486;2023-10-19T15:08:00;7.40;99.90
9305;DHT22;4690;52.422;13.486;2023-10-19T15:10:28;7.40;99.90
9305;DHT22;4690;52.422;13.486;2023-10-19T15:12:55;7.40;99.90
9305;DHT22;4690;52.422;13.486;2023-10-19T15:15:25;7.40;99.90
9305;DHT22;4690;52.422;13.486;2023-10-19T15:17:52;7.40;99.90
9305;DHT22;4690;52.422;13.486;2023-10-19T15:20:19;7.50;99.90
9305;DHT22;4690;52.422;13.486;2023-10-19T15:22:49;7.50;99.90
9305;DHT22;4690;52.422;13.486;2023-10-19T15:25:15;7.40;99.90
9305;DHT22;4690;52.422;13.486;2023-10-19T15:27:45;7.50;99.90
9305;DHT22;4690;52.422;13.486;2023-10-19T15:30:12;7.50;99.90
9305;DHT22;4690;52.422;13.486;2023-10-19T15:32:39;7.50;99.90
9305;DHT22;4690;52.422;13.486;2023-10-19T15:35:13;7.60;99.90
9305;DHT22;4690;52.422;13.486;2023-10-19T15:37:42;7.60;99.90
9305;DHT22;4690;52.422;13.486;2023-10-19T15:40:13;7.60;99.90
9305;DHT22;4690;52.422;13.486;2023-10-19T15:42:41;7.60;99.90
9305;DHT22;4690;52.422;13.486;2023-10-19T15:45:14;7.60;99.90
9305;DHT22;4690;52.422;13.486;2023-10-19T15:47:44;7.70;99.90
9305;DHT22;4690;52.422;13.486;2023-10-19T15:50:11;7.60;99.90
9305;DHT22;4690;52.422;13.486;2023-10-19T15:52:38;7.60;99.90
9305;DHT22;4690;52.422;13.486;2023-10-19T15:55:11;7.60;99.90
9305;DHT22;4690;52.422;13.486;2023-10-19T15:57:38;7.60;99.90
9305;DHT22;4690;52.422;13.486;2023-10-19T16:00:07;7.60;99.90
9305;DHT22;4690;52.422;13.486;2023-10-19T16:02:39;7.60;99.90
9305;DHT22;4690;52.422;13.486;2023-10-19T16:05:05;7.60;99.90
9305;DHT22;4690;52.422;13.486;2023-10-19T16:07:31;7.60;99.90
9305;DHT22;4690;52.422;13.486;2023-10-19T16:09:57;7.60;99.90
9305;DHT22;4690;52.422;13.486;2023-10-19T16:12:23;7.70;99.90
9305;DHT22;4690;52.422;13.486;2023-10-19T16:14:49;7.70;99.90
9305;DHT22;4690;52.422;13.486;2023-10-19T16:17:15;7.70;99.90
9305;DHT22;4690;52.422;13.486;2023-10-19T16:19:42;7.60;99.90
9305;DHT22;4690;52.422;13.486;2023-10-19T16:22:08;7.60;99.90
9305;DHT22;4690;52.422;13.486;2023-10-19T16:24:34;7.60;99.90
9305;DHT22;4690;52.422;13.486;2023-10-19T16:27:00;7.70;99.90
9305;DHT22;4690;52.422;13.486;2023-10-19T16:29:27;7.60;99.90
9305;DHT22;4690;52.422;13.486;2023-10-19T16:31:53;7.70;99.90
9305;DHT22;4690;52.422;13.486;2023-10-19T16:34:23;7.70;99.90
9305;DHT22;4690;52.422;13.486;2023-10-19T16:36:49;7.70;99.90
9305;DHT22;4690;52.422;13.486;2023-10-19T16:39:15;7.70;99.90